Latest Weather Observations for Kingaroy

IDQ60801

Issued at 9:05 am EST Saturday 23 August 2014 (issued every 30 minutes, with the page automatically refreshed every 10 minutes)

About weather observations | Map of weather stations | Latest weather observations for QLD | Other Formats
Station Details ID: 040922 Name: KINGAROY AIRPORT Lat: -26.57 Lon: 151.84 Height: 433.67 m
Data from the previous 72 hours. | See also: Recent months at Kingaroy
Date/Time
EST
Temp
°C
App
Temp
°C
Dew
Point
Rel
Hum
%
Delta-T
°C
Wind Press
QNH
hPa
Press
MSL
hPa
Rain
since 9 am
mm
Dir
 
Spd
km/h
Gust
km/h
Spd
kts
Gust
kts
23/09:00am 14.7 9.0 11.3 80 1.8 SSE 32 48 17 26 1023.0 1022.8 2.4
23/08:30am 14.2 9.0 10.4 78 2.0 SSE 28 48 15 26 1022.7 1022.5 2.4
23/08:00am 13.3 7.7 10.3 82 1.6 SE 30 50 16 27 1022.7 1022.5 2.4
23/07:59am 13.2 7.2 10.0 81 1.7 SE 32 50 17 27 1022.7 1022.5 2.4
23/07:30am 12.8 8.3 10.2 84 1.4 SE 24 35 13 19 1022.4 1022.1 2.4
23/07:00am 12.4 8.8 9.8 84 1.4 SSE 19 30 10 16 1022.0 1021.7 2.4
23/06:30am 12.3 8.1 9.9 85 1.3 SE 22 37 12 20 1022.0 1021.7 2.4
23/06:00am 12.2 8.6 9.9 86 1.2 SSE 19 33 10 18 1021.6 1021.3 2.4
23/05:30am 12.2 8.5 10.1 87 1.1 SSE 20 33 11 18 1021.5 1021.2 2.4
23/05:00am 12.2 6.9 9.9 86 1.2 SSE 28 43 15 23 1021.3 1021.0 2.4
23/04:30am 12.2 8.5 10.3 88 1.0 SE 20 35 11 19 1021.0 1020.8 2.4
23/04:00am 12.2 8.1 10.1 87 1.1 SSE 22 32 12 17 1020.9 1020.7 2.4
23/03:48am 12.2 7.0 10.1 87 1.1 SSE 28 46 15 25 1020.9 1020.7 2.4
23/03:30am 12.2 7.0 10.3 88 1.0 SSE 28 43 15 23 1021.0 1020.8 2.4
23/03:00am 12.1 7.6 10.2 88 1.0 SSE 24 39 13 21 1021.6 1021.3 2.4
23/02:30am 12.1 7.6 10.2 88 1.0 SSE 24 35 13 19 1022.0 1021.7 2.4
23/02:00am 12.2 8.2 10.3 88 1.0 SSE 22 39 12 21 1022.1 1021.8 2.4
23/01:30am 12.1 8.1 10.5 90 0.8 SSE 22 33 12 18 1022.4 1022.1 2.4
23/01:00am 12.0 8.9 10.4 90 0.8 SSE 17 28 9 15 1022.9 1022.7 2.4
23/12:30am 12.0 8.3 10.2 89 0.9 SSE 20 30 11 16 1023.2 1023.0 2.4
23/12:00am 11.9 8.2 10.3 90 0.8 SSE 20 35 11 19 1023.3 1023.1 2.4
 
Date/Time
EST
Temp
°C
App
Temp
°C
Dew
Point
Rel
Hum
%
Delta-T
°C
Wind Press
QNH
hPa
Press
MSL
hPa
Rain
since 9 am
mm
Dir
 
Spd
km/h
Gust
km/h
Spd
kts
Gust
kts
22/11:30pm 11.9 8.2 10.3 90 0.8 SE 20 41 11 22 1023.5 1023.3 2.4
22/11:00pm 11.9 8.9 10.5 91 0.7 SE 17 30 9 16 1023.8 1023.5 2.4
22/10:30pm 11.9 8.4 10.3 90 0.8 SE 19 33 10 18 1023.7 1023.4 2.4
22/10:00pm 12.0 9.0 10.6 91 0.7 SE 17 30 9 16 1023.8 1023.5 2.4
22/09:30pm 12.4 8.9 10.8 90 0.9 SE 20 32 11 17 1024.0 1023.7 2.4
22/09:00pm 12.6 9.3 11.0 90 0.9 SE 19 32 10 17 1024.1 1023.8 2.4
22/08:30pm 12.6 9.8 11.2 91 0.8 SE 17 28 9 15 1024.1 1023.8 2.4
22/08:00pm 12.6 9.3 11.5 93 0.6 SE 20 30 11 16 1023.8 1023.5 2.4
22/07:30pm 12.6 9.5 11.5 93 0.6 SE 19 28 10 15 1023.7 1023.4 2.4
22/07:00pm 12.5 9.7 11.4 93 0.6 SE 17 28 9 15 1023.5 1023.3 2.4
22/06:30pm 12.6 10.2 11.3 92 0.7 SE 15 24 8 13 1023.4 1023.2 2.4
22/06:00pm 12.5 9.6 11.1 91 0.7 SE 17 28 9 15 1023.1 1022.9 2.4
22/05:30pm 12.7 9.8 10.9 89 1.0 SE 17 28 9 15 1023.0 1022.8 2.4
22/05:00pm 13.0 9.6 11.1 88 1.0 SE 20 39 11 21 1022.9 1022.7 2.4
22/04:30pm 13.1 10.8 11.8 92 0.7 SE 15 24 8 13 1022.8 1022.6 2.4
22/04:00pm 13.2 10.5 11.6 90 0.9 ESE 17 26 9 14 1022.5 1022.2 2.4
22/03:30pm 13.2 10.6 12.1 93 0.6 SE 17 24 9 13 1022.3 1022.0 2.4
22/03:00pm 13.2 11.1 12.3 94 0.5 SE 15 24 8 13 1022.4 1022.1 2.2
22/02:30pm 13.2 10.3 12.3 94 0.5 SE 19 24 10 13 1022.8 1022.6 1.4
22/02:00pm 13.6 10.9 11.7 88 1.0 SSE 17 24 9 13 1022.9 1022.7 1.2
22/01:30pm 13.8 11.3 12.2 90 0.9 SE 17 26 9 14 1023.3 1023.1 1.2
22/01:00pm 13.6 11.1 12.2 91 0.8 SE 17 26 9 14 1023.7 1023.4 1.2
22/12:30pm 13.3 10.7 12.0 92 0.7 SE 17 24 9 13 1024.2 1023.9 1.0
22/12:00pm 13.0 10.3 11.7 92 0.7 SE 17 28 9 15 1024.6 1024.3 0.6
22/11:30am 13.2 10.5 11.8 91 0.8 SE 17 30 9 16 1025.0 1024.8 0.6
22/11:00am 13.0 10.3 11.6 91 0.8 ESE 17 32 9 17 1025.3 1025.1 0.0
22/10:30am 13.0 9.6 11.1 88 1.0 ESE 20 30 11 16 1025.7 1025.5 0.0
22/10:00am 13.2 9.8 11.4 89 1.0 ESE 20 35 11 19 1025.6 1025.4 0.0
22/09:30am 12.8 9.6 11.4 91 0.8 ESE 19 33 10 18 1025.4 1025.2 0.0
22/09:00am 12.5 9.7 11.4 93 0.6 SE 17 28 9 15 1025.2 1025.0 4.4
22/08:30am 11.7 8.4 10.9 95 0.4 ESE 19 32 10 17 1024.9 1024.7 4.2
22/08:00am 11.5 8.5 10.6 94 0.5 SE 17 22 9 12 1025.1 1024.9 3.8
22/07:30am 11.4 9.1 10.5 94 0.5 E 13 19 7 10 1025.4 1025.2 3.4
22/07:00am 11.2 9.2 10.1 93 0.6 SE 11 20 6 11 1024.5 1024.2 3.4
22/06:30am 11.3 9.3 10.2 93 0.6 SE 11 17 6 9 1024.2 1023.9 3.4
22/06:00am 11.0 9.0 10.1 94 0.5 SSE 11 15 6 8 1023.9 1023.6 3.4
22/05:30am 11.1 8.3 10.0 93 0.6 SSE 15 20 8 11 1023.7 1023.4 3.4
22/05:00am 11.0 7.8 9.9 93 0.6 SSE 17 24 9 13 1023.1 1022.9 3.4
22/04:30am 11.1 8.3 10.0 93 0.6 SE 15 20 8 11 1023.2 1023.0 3.4
22/04:00am 11.2 9.2 10.1 93 0.6 ESE 11 17 6 9 1023.3 1023.1 2.6
22/03:30am 11.2 9.2 10.1 93 0.6 ESE 11 19 6 10 1023.7 1023.4 2.2
22/03:00am 11.3 9.3 10.0 92 0.7 ESE 11 15 6 8 1023.7 1023.4 1.8
22/02:30am 11.6 9.2 10.2 91 0.7 SE 13 19 7 10 1023.8 1023.5 1.2
22/02:00am 11.7 8.6 10.3 91 0.7 SSE 17 22 9 12 1023.7 1023.4 1.0
22/01:30am 11.7 9.4 10.4 92 0.7 SSE 13 22 7 12 1024.1 1023.8 1.0
22/01:00am 11.9 8.9 10.6 92 0.7 SSE 17 24 9 13 1024.5 1024.2 1.0
22/12:30am 12.2 8.8 10.6 90 0.8 SSE 19 28 10 15 1024.6 1024.3 0.8
22/12:00am 12.4 9.4 10.8 90 0.8 SE 17 28 9 15 1024.9 1024.7 0.8
 
Date/Time
EST
Temp
°C
App
Temp
°C
Dew
Point
Rel
Hum
%
Delta-T
°C
Wind Press
QNH
hPa
Press
MSL
hPa
Rain
since 9 am
mm
Dir
 
Spd
km/h
Gust
km/h
Spd
kts
Gust
kts
21/11:30pm 12.5 10.3 10.9 90 0.9 SE 13 20 7 11 1024.7 1024.5 0.8
21/11:00pm 12.3 10.9 10.9 91 0.7 SE 9 15 5 8 1024.7 1024.5 0.8
21/10:30pm 12.3 10.1 10.9 91 0.7 SE 13 20 7 11 1024.5 1024.2 0.8
21/10:00pm 12.7 10.2 10.9 89 1.0 SE 15 26 8 14 1024.3 1024.0 0.8
21/09:30pm 13.1 10.3 11.2 88 1.0 ESE 17 26 9 14 1023.8 1023.5 0.4
21/09:00pm 13.3 10.0 11.0 86 1.2 ESE 19 33 10 18 1024.1 1023.8 0.2
21/08:30pm 13.7 11.2 10.9 83 1.5 ESE 15 24 8 13 1023.8 1023.5 0.0
21/08:00pm 13.9 11.4 10.9 82 1.6 E 15 22 8 12 1023.7 1023.4 0.0
21/07:30pm 14.3 11.4 11.1 81 1.7 E 17 24 9 13 1023.0 1022.8 0.0
21/07:00pm 14.9 13.1 10.7 76 2.3 E 11 17 6 9 1023.0 1022.8 0.0
21/06:30pm 15.9 12.7 9.8 67 3.3 E 17 22 9 12 1022.4 1022.1 0.0
21/06:00pm 16.6 13.2 9.3 62 3.9 E 17 24 9 13 1021.9 1021.6 0.0
21/05:30pm 17.1 14.5 9.3 60 4.2 E 13 20 7 11 1021.4 1021.1 0.0
21/05:00pm 17.7 14.2 8.6 55 4.8 ESE 17 28 9 15 1020.8 1020.6 0.0
21/04:30pm 18.0 15.6 8.8 55 4.9 ESE 11 17 6 9 1020.6 1020.3 0.0
21/04:00pm 18.3 15.1 8.6 53 5.1 ESE 15 22 8 12 1020.4 1020.1 0.0
21/03:30pm 18.9 15.3 8.3 50 5.6 ESE 17 26 9 14 1020.2 1019.9 0.0
21/03:00pm 19.0 15.8 8.4 50 5.6 SE 15 22 8 12 1020.3 1020.0 0.0
21/02:30pm 19.3 16.0 8.0 48 5.9 SE 15 24 8 13 1020.5 1020.2 0.0
21/02:00pm 20.0 15.5 7.1 43 6.7 ESE 20 32 11 17 1020.5 1020.2 0.0
21/01:30pm 19.3 15.7 8.3 49 5.8 SSE 17 24 9 13 1020.8 1020.6 0.0
21/01:00pm 18.7 14.6 8.7 52 5.3 SSE 20 32 11 17 1020.9 1020.7 0.0
21/12:30pm 18.9 15.8 8.8 52 5.4 SE 15 22 8 12 1021.7 1021.4 0.0
21/12:00pm 18.7 14.1 9.5 55 4.9 ESE 24 32 13 17 1022.1 1021.8 0.0
21/11:30am 17.4 13.9 8.8 57 4.5 ESE 17 28 9 15 1022.9 1022.7 0.0
21/11:00am 17.8 14.0 8.9 56 4.7 SE 19 28 10 15 1023.0 1022.8 0.0
21/10:30am 16.0 12.5 8.7 62 3.8 SE 17 22 9 12 1023.4 1023.2 0.0
21/10:00am 15.9 12.5 9.3 65 3.5 SSE 17 28 9 15 1023.4 1023.2 0.0
21/09:30am 13.9 10.0 8.5 70 2.8 ESE 19 26 10 14 1023.5 1023.3 0.0
21/09:00am 13.8 10.4 9.0 73 2.5 SE 17 30 9 16 1023.5 1023.3 0.0
21/08:30am 13.1 10.1 9.4 78 1.9 SSE 15 26 8 14 1023.4 1023.2 0.0
21/08:00am 11.9 9.3 9.5 85 1.2 S 13 19 7 10 1023.1 1022.9 0.0
21/07:30am 10.4 7.3 9.0 91 0.7 S 15 19 8 10 1022.8 1022.6 0.0
21/07:00am 9.9 7.2 9.0 94 0.5 S 13 20 7 11 1022.7 1022.5 0.0
21/06:30am 7.7 5.8 6.8 94 0.4 S 6 9 3 5 1022.4 1022.1 0.0
21/06:00am 8.0 5.7 7.4 96 0.3 SSW 9 13 5 7 1022.2 1021.9 0.0
21/05:30am 7.9 6.6 7.5 97 0.2 SSE 4 7 2 4 1021.9 1021.6 0.0
21/05:00am 7.5 6.4 7.1 97 0.2 ENE 2 6 1 3 1021.7 1021.4 0.0
21/04:30am 7.0 6.2 6.4 96 0.3 CALM 0 6 0 3 1021.6 1021.3 0.0
21/04:00am 6.8 5.4 5.7 93 0.5 S 2 7 1 4 1021.7 1021.4 0.0
21/03:30am 8.3 6.4 7.7 96 0.3 SSE 7 13 4 7 1021.7 1021.4 0.0
21/03:00am 8.2 5.9 7.6 96 0.3 S 9 11 5 6 1021.9 1021.6 0.0
21/02:30am 8.4 5.8 7.6 95 0.4 S 11 13 6 7 1021.9 1021.6 0.0
21/02:00am 8.9 6.4 8.0 94 0.4 S 11 13 6 7 1022.0 1021.7 0.0
21/01:30am 9.1 7.4 7.5 90 0.8 S 6 7 3 4 1022.3 1022.0 0.0
21/01:00am 10.0 8.2 8.1 88 0.9 S 7 11 4 6 1022.3 1022.0 0.0
21/12:30am 11.1 9.1 8.7 85 1.2 SSE 9 13 5 7 1022.4 1022.1 0.0
21/12:00am 11.1 9.5 8.8 86 1.2 SE 7 11 4 6 1022.4 1022.1 0.0
 
Date/Time
EST
Temp
°C
App
Temp
°C
Dew
Point
Rel
Hum
%
Delta-T
°C
Wind Press
QNH
hPa
Press
MSL
hPa
Rain
since 9 am
mm
Dir
 
Spd
km/h
Gust
km/h
Spd
kts
Gust
kts
20/11:30pm 10.8 9.3 8.4 85 1.2 SE 6 7 3 4 1022.3 1022.0 0.0
20/11:00pm 11.5 10.2 9.1 85 1.2 SSE 6 7 3 4 1022.6 1022.3 0.0
20/10:30pm 12.0 10.7 9.2 83 1.4 SE 6 9 3 5 1022.5 1022.2 0.0
20/10:00pm 12.7 11.4 9.3 80 1.8 ESE 6 9 3 5 1022.6 1022.3 0.0
20/09:30pm 13.1 11.7 9.5 79 1.9 ESE 7 9 4 5 1022.4 1022.1 0.0
20/09:00pm 13.6 11.8 9.6 77 2.1 E 9 13 5 7 1022.1 1021.8 0.0
20/08:30pm 13.9 11.7 9.3 74 2.4 E 11 15 6 8 1021.8 1021.5 0.0
20/08:00pm 14.5 12.3 9.3 71 2.7 E 11 17 6 9 1021.6 1021.3 0.0
20/07:30pm 15.3 12.6 8.8 65 3.4 ENE 13 20 7 11 1021.1 1020.9 0.0
20/07:00pm 14.8 12.2 7.6 62 3.6 E 11 13 6 7 1020.8 1020.6 0.0
20/06:30pm 14.6 11.8 6.9 60 3.8 E 11 13 6 7 1020.3 1020.0 0.0
20/06:00pm 15.1 12.5 5.9 54 4.5 E 9 11 5 6 1020.0 1019.7 0.0
20/05:30pm 17.4 14.7 5.4 45 5.9 ESE 9 13 5 7 1019.2 1018.9 0.0
20/05:00pm 19.2 16.0 5.3 40 6.9 ESE 11 15 6 8 1018.6 1018.3 0.0
20/04:30pm 19.9 16.6 4.8 37 7.5 SE 11 19 6 10 1018.2 1017.9 0.0
20/04:00pm 20.5 17.6 4.9 36 7.8 ENE 9 13 5 7 1018.1 1017.8 0.0
20/03:30pm 20.4 16.4 4.8 36 7.8 SSE 15 19 8 10 1018.1 1017.8 0.0
20/03:00pm 19.7 16.4 4.6 37 7.4 SE 11 15 6 8 1018.1 1017.8 0.0
20/02:30pm 20.9 18.1 5.3 36 7.9 WSW 9 15 5 8 1018.0 1017.7 0.0
20/02:00pm 20.0 16.3 4.5 36 7.6 S 13 20 7 11 1018.3 1018.0 0.0
20/01:30pm 20.6 18.2 5.4 37 7.7 ENE 7 15 4 8 1018.5 1018.2 0.0
20/01:00pm 20.2 17.5 5.4 38 7.4 E 9 15 5 8 1018.8 1018.5 0.0
20/12:30pm 20.0 17.9 6.7 42 6.9 E 7 15 4 8 1019.3 1019.0 0.0
20/12:00pm 19.2 16.3 6.7 44 6.4 SE 11 15 6 8 1019.6 1019.3 0.0
20/11:30am 18.8 15.8 7.6 48 5.8 E 13 24 7 13 1019.9 1019.6 0.0
20/11:00am 18.1 15.1 7.5 50 5.5 SE 13 20 7 11 1020.3 1020.0 0.0
20/10:30am 17.3 13.8 7.4 52 5.1 E 15 20 8 11 1020.6 1020.3 0.0
20/10:00am 16.3 11.7 6.7 53 4.8 ESE 20 28 11 15 1020.7 1020.5 0.0
20/09:30am 15.4 11.1 7.2 58 4.1 SE 19 24 10 13 1020.8 1020.6 0.0

Other Formats:

Comma delimited format used in spreadsheet applications
http://www.bom.gov.au/fwo/IDQ60801/IDQ60801.94549.axf

JavaScript Object Notation format (JSON) in row-major order
http://www.bom.gov.au/fwo/IDQ60801/IDQ60801.94549.json